createdAt,value
2023-04-09T00:02:36.473Z,134.10
2023-04-09T00:05:10.097Z,129.50
2023-04-09T00:07:54.123Z,121.40
2023-04-09T00:10:37.420Z,116.40
2023-04-09T00:16:26.219Z,110.60
2023-04-09T00:19:19.113Z,106.20
2023-04-09T00:22:12.237Z,118.90
2023-04-09T00:25:05.291Z,124.00
2023-04-09T00:27:47.160Z,129.10
2023-04-09T00:30:40.063Z,133.50
2023-04-09T00:33:22.833Z,123.30
2023-04-09T00:36:15.656Z,123.00
2023-04-09T00:38:48.805Z,114.20
2023-04-09T00:41:22.338Z,115.10
2023-04-09T00:44:00.401Z,111.70
2023-04-09T00:46:34.323Z,108.20
2023-04-09T00:49:07.119Z,98.30
2023-04-09T00:51:40.722Z,112.70
2023-04-09T00:54:13.997Z,96.30
2023-04-09T00:56:46.987Z,107.80
2023-04-09T00:59:19.468Z,100.00
2023-04-09T01:01:54.839Z,99.40
2023-04-09T01:04:29.828Z,93.10
2023-04-09T01:07:12.645Z,98.70
2023-04-09T01:09:56.699Z,85.20
2023-04-09T01:12:38.239Z,87.90
2023-04-09T01:15:16.523Z,94.80
2023-04-09T01:17:54.626Z,82.40
2023-04-09T01:20:38.745Z,82.40
2023-04-09T01:23:20.841Z,95.90
2023-04-09T01:26:06.058Z,100.00
2023-04-09T01:28:54.737Z,99.80
2023-04-09T01:31:31.092Z,110.50
2023-04-09T01:34:05.106Z,117.60
2023-04-09T01:36:43.458Z,117.70
2023-04-09T01:39:17.990Z,134.00
2023-04-09T01:41:54.353Z,116.50
2023-04-09T01:44:30.955Z,121.20
2023-04-09T01:47:07.219Z,113.40
2023-04-09T01:49:44.703Z,106.40
2023-04-09T01:52:17.504Z,114.90
2023-04-09T01:54:53.036Z,110.20
2023-04-09T01:57:25.804Z,107.20
2023-04-09T02:00:01.108Z,107.80
2023-04-09T02:02:48.464Z,108.80
2023-04-09T02:05:24.264Z,107.90
2023-04-09T02:08:13.977Z,108.00
2023-04-09T02:10:57.162Z,103.50
2023-04-09T02:13:34.940Z,101.90
2023-04-09T02:16:09.874Z,104.50
2023-04-09T02:18:54.586Z,102.50
2023-04-09T02:24:12.362Z,102.30
2023-04-09T02:26:47.936Z,103.00
2023-04-09T02:29:20.692Z,104.00
2023-04-09T02:31:53.696Z,102.50
2023-04-09T02:34:26.626Z,105.10
2023-04-09T02:37:02.113Z,106.10
2023-04-09T02:39:34.643Z,102.70
2023-04-09T02:42:08.438Z,106.80
2023-04-09T02:44:41.096Z,109.20
2023-04-09T02:47:14.068Z,102.90
2023-04-09T02:49:49.645Z,105.70
2023-04-09T02:52:33.505Z,101.60
2023-04-09T02:55:16.333Z,100.70
2023-04-09T02:58:09.282Z,97.20
2023-04-09T03:00:52.051Z,101.30
2023-04-09T03:03:31.066Z,93.10
2023-04-09T03:06:08.683Z,90.10
2023-04-09T03:08:44.477Z,102.80
2023-04-09T03:11:17.435Z,94.00
2023-04-09T03:13:53.081Z,93.30
2023-04-09T03:16:27.748Z,103.90
2023-04-09T03:19:02.977Z,104.10
2023-04-09T03:21:35.733Z,110.10
2023-04-09T03:24:09.195Z,109.30
2023-04-09T03:26:42.216Z,117.00
2023-04-09T03:29:17.474Z,118.70
2023-04-09T03:32:01.000Z,121.30
2023-04-09T03:34:33.625Z,118.40
2023-04-09T03:37:13.792Z,104.50
2023-04-09T03:39:47.475Z,104.70
2023-04-09T03:42:20.368Z,96.80
2023-04-09T03:44:57.962Z,102.10
2023-04-09T03:47:38.217Z,98.70
2023-04-09T03:50:21.697Z,105.20
2023-04-09T03:52:58.781Z,98.90
2023-04-09T03:55:31.542Z,96.20
2023-04-09T03:58:05.294Z,104.00
2023-04-09T04:00:41.625Z,99.10
2023-04-09T04:03:27.682Z,99.40
2023-04-09T04:06:22.043Z,105.00
2023-04-09T04:09:00.946Z,100.60
2023-04-09T04:11:40.827Z,100.80
2023-04-09T04:14:16.868Z,92.10
2023-04-09T04:16:54.253Z,92.70
2023-04-09T04:19:46.918Z,92.70
2023-04-09T04:22:23.307Z,96.80
2023-04-09T04:25:01.365Z,94.70
2023-04-09T04:27:37.816Z,93.10
2023-04-09T04:30:21.756Z,87.40
2023-04-09T04:33:02.977Z,88.90
2023-04-09T04:35:41.198Z,83.00
2023-04-09T04:38:17.728Z,83.80
2023-04-09T04:41:01.358Z,84.10
2023-04-09T04:43:45.127Z,84.40
2023-04-09T04:46:24.150Z,88.30
2023-04-09T04:48:59.649Z,83.70
2023-04-09T04:51:33.548Z,96.40
2023-04-09T04:54:10.601Z,90.70
2023-04-09T04:56:46.856Z,90.30
2023-04-09T04:59:44.038Z,100.60
2023-04-09T05:02:19.378Z,95.30
2023-04-09T05:05:12.549Z,99.80
2023-04-09T05:07:53.100Z,100.70
2023-04-09T05:10:46.975Z,96.90
2023-04-09T05:13:30.148Z,86.70
2023-04-09T05:16:03.835Z,89.90
2023-04-09T05:18:37.410Z,88.90
2023-04-09T05:21:11.713Z,80.70
2023-04-09T05:23:46.494Z,82.80
2023-04-09T05:26:19.066Z,80.00
2023-04-09T05:28:58.689Z,79.10
2023-04-09T05:31:31.372Z,71.30
2023-04-09T05:34:08.950Z,74.20
2023-04-09T05:36:50.463Z,73.10
2023-04-09T05:39:26.686Z,72.50
2023-04-09T05:42:19.427Z,65.90
2023-04-09T05:45:18.456Z,63.40
2023-04-09T05:47:54.268Z,67.60
2023-04-09T05:50:31.831Z,164.80
2023-04-09T05:53:09.422Z,238.70
2023-04-09T05:55:44.840Z,69.90
2023-04-09T05:58:29.610Z,66.60
2023-04-09T06:01:10.335Z,64.70
2023-04-09T06:03:46.869Z,72.90
2023-04-09T06:06:30.412Z,68.30
2023-04-09T06:09:04.712Z,74.30
2023-04-09T06:11:43.513Z,81.10
2023-04-09T06:14:18.499Z,86.70
2023-04-09T06:16:51.019Z,88.00
2023-04-09T06:19:25.806Z,71.80
2023-04-09T06:21:58.622Z,73.10
2023-04-09T06:24:32.055Z,67.60
2023-04-09T06:27:05.009Z,69.30
2023-04-09T06:29:37.682Z,67.70
2023-04-09T06:32:12.143Z,59.90
2023-04-09T06:34:46.874Z,54.90
2023-04-09T06:37:21.669Z,54.10
2023-04-09T06:40:00.827Z,60.10
2023-04-09T06:42:35.422Z,61.40
2023-04-09T06:45:17.227Z,53.60
2023-04-09T06:47:50.138Z,54.70
2023-04-09T06:50:23.039Z,47.30
2023-04-09T06:52:57.783Z,45.70
2023-04-09T06:55:34.144Z,46.80
2023-04-09T06:58:07.189Z,48.10
2023-04-09T07:00:42.873Z,48.50
2023-04-09T07:03:16.119Z,45.70
2023-04-09T07:05:52.219Z,46.90
2023-04-09T07:08:25.113Z,47.50
2023-04-09T07:10:58.109Z,42.20
2023-04-09T07:13:31.405Z,44.80
2023-04-09T07:16:09.671Z,42.80
2023-04-09T07:18:42.131Z,43.80
2023-04-09T07:21:15.278Z,44.70
2023-04-09T07:23:48.181Z,43.40
2023-04-09T07:26:20.894Z,42.30
2023-04-09T07:28:56.256Z,42.70
2023-04-09T07:31:35.310Z,40.50
2023-04-09T07:34:08.998Z,39.40
2023-04-09T07:36:44.291Z,39.20
2023-04-09T07:39:21.254Z,39.80
2023-04-09T07:41:54.193Z,38.90
2023-04-09T07:44:27.200Z,40.30
2023-04-09T07:47:02.670Z,38.00
2023-04-09T07:49:40.625Z,37.90
2023-04-09T07:52:13.286Z,37.20
2023-04-09T07:54:45.828Z,38.70
2023-04-09T07:57:20.898Z,37.40
2023-04-09T07:59:54.211Z,34.40
2023-04-09T08:02:35.222Z,35.80
2023-04-09T08:05:12.294Z,37.00
2023-04-09T08:07:44.752Z,45.70
2023-04-09T08:10:17.203Z,35.10
2023-04-09T08:12:51.262Z,36.90
2023-04-09T08:15:24.263Z,35.40
2023-04-09T08:17:59.720Z,37.10
2023-04-09T08:20:45.735Z,38.90
2023-04-09T08:23:28.162Z,41.20
2023-04-09T08:26:00.722Z,34.60
2023-04-09T08:28:43.403Z,34.80
2023-04-09T08:31:26.609Z,33.50
2023-04-09T08:34:10.724Z,31.60
2023-04-09T08:36:49.986Z,36.20
2023-04-09T08:39:37.501Z,36.00
2023-04-09T08:42:16.261Z,34.60
2023-04-09T08:44:52.024Z,34.70
2023-04-09T08:47:30.560Z,35.40
2023-04-09T08:50:12.872Z,33.10
2023-04-09T08:52:50.649Z,32.60
2023-04-09T08:55:31.444Z,34.40
2023-04-09T08:58:15.604Z,36.20
2023-04-09T09:00:51.577Z,37.60
2023-04-09T09:03:53.390Z,31.60
2023-04-09T09:06:32.881Z,36.20
2023-04-09T09:09:17.096Z,33.80
2023-04-09T09:12:11.565Z,33.10
2023-04-09T09:14:44.325Z,33.90
2023-04-09T09:17:20.286Z,33.30
2023-04-09T09:19:56.913Z,35.00
2023-04-09T09:22:57.867Z,30.60
2023-04-09T09:25:51.313Z,34.10
2023-04-09T09:28:37.969Z,32.40
2023-04-09T09:31:13.449Z,33.20
2023-04-09T09:34:01.337Z,32.40
2023-04-09T09:36:37.633Z,31.10
2023-04-09T09:39:12.332Z,28.80
2023-04-09T09:41:45.957Z,31.20
2023-04-09T09:44:34.034Z,29.40
2023-04-09T09:47:15.623Z,31.00
2023-04-09T09:49:58.363Z,28.80
2023-04-09T09:52:44.629Z,27.80
2023-04-09T09:55:22.637Z,27.10
2023-04-09T09:57:57.551Z,30.40
2023-04-09T10:00:51.824Z,27.60
2023-04-09T10:03:30.857Z,29.90
2023-04-09T10:06:04.881Z,29.90
2023-04-09T10:08:44.170Z,27.30
2023-04-09T10:11:16.878Z,27.70
2023-04-09T10:13:56.984Z,29.00
2023-04-09T10:19:20.827Z,26.50
2023-04-09T10:22:04.773Z,26.90
2023-04-09T10:24:42.308Z,24.90
2023-04-09T10:29:52.181Z,23.70
2023-04-09T10:32:28.443Z,21.60
2023-04-09T10:35:07.180Z,20.10
2023-04-09T10:37:39.941Z,19.80
2023-04-09T10:40:22.726Z,21.00
2023-04-09T10:42:57.082Z,19.70
2023-04-09T10:45:42.826Z,16.00
2023-04-09T10:48:22.942Z,15.30
2023-04-09T10:50:58.148Z,15.90
2023-04-09T10:53:42.285Z,15.50
2023-04-09T10:56:19.190Z,17.20
2023-04-09T10:58:51.963Z,16.60
2023-04-09T11:01:28.806Z,16.70
2023-04-09T11:04:22.158Z,13.50
2023-04-09T11:06:58.017Z,15.40
2023-04-09T11:09:30.522Z,17.30
2023-04-09T11:12:03.796Z,15.70
2023-04-09T11:14:39.255Z,14.50
2023-04-09T11:17:22.891Z,16.20
2023-04-09T11:20:02.629Z,16.70
2023-04-09T11:22:57.556Z,17.50
2023-04-09T11:25:40.197Z,17.00
2023-04-09T11:28:16.928Z,14.70
2023-04-09T11:30:53.501Z,14.60
2023-04-09T11:33:35.662Z,17.00
2023-04-09T11:36:09.547Z,17.80
2023-04-09T11:38:45.536Z,13.00
2023-04-09T11:41:18.159Z,9.70
2023-04-09T11:43:54.908Z,10.40
2023-04-09T11:46:28.017Z,12.00
2023-04-09T11:49:04.030Z,11.70
2023-04-09T11:51:39.753Z,16.60
2023-04-09T11:54:15.572Z,16.60
2023-04-09T11:56:55.971Z,16.10
2023-04-09T11:59:32.848Z,18.40
2023-04-09T12:02:20.683Z,16.30
2023-04-09T12:05:06.489Z,18.10
2023-04-09T12:07:42.323Z,18.30
2023-04-09T12:10:27.883Z,18.00
2023-04-09T12:13:05.010Z,18.30
2023-04-09T12:15:41.291Z,18.80
2023-04-09T12:18:17.646Z,18.60
2023-04-09T12:20:53.314Z,18.90
2023-04-09T12:23:26.128Z,20.10
2023-04-09T12:26:00.859Z,19.00
2023-04-09T12:28:35.050Z,19.40
2023-04-09T12:31:17.749Z,17.30
2023-04-09T12:33:52.916Z,17.70
2023-04-09T12:36:26.597Z,17.90
2023-04-09T12:38:59.807Z,17.80
2023-04-09T12:41:32.774Z,19.10
2023-04-09T12:44:15.618Z,17.80
2023-04-09T12:46:48.523Z,20.80
2023-04-09T12:49:31.245Z,22.60
2023-04-09T12:52:07.102Z,25.40
2023-04-09T12:54:40.522Z,19.90
2023-04-09T12:57:13.105Z,17.40
2023-04-09T12:59:49.360Z,17.50
2023-04-09T13:02:23.238Z,15.50
2023-04-09T13:04:55.680Z,17.70
2023-04-09T13:07:31.049Z,17.40
2023-04-09T13:10:06.144Z,14.90
2023-04-09T13:12:48.989Z,16.30
2023-04-09T13:15:22.128Z,15.30
2023-04-09T13:17:54.779Z,15.80
2023-04-09T13:20:27.529Z,17.30
2023-04-09T13:23:01.609Z,15.50
2023-04-09T13:25:34.091Z,16.60
2023-04-09T13:28:07.328Z,16.10
2023-04-09T13:30:39.890Z,16.70
2023-04-09T13:33:15.745Z,16.50
2023-04-09T13:35:48.475Z,14.90
2023-04-09T13:38:21.177Z,16.40
2023-04-09T13:40:56.425Z,15.60
2023-04-09T13:43:29.510Z,17.50
2023-04-09T13:46:08.508Z,18.30
2023-04-09T13:48:41.434Z,18.10
2023-04-09T13:51:14.186Z,16.40
2023-04-09T13:53:48.318Z,18.50
2023-04-09T13:56:22.070Z,26.30
2023-04-09T13:59:14.970Z,30.80
2023-04-09T14:01:57.621Z,19.70
2023-04-09T14:04:50.549Z,18.10
2023-04-09T14:07:33.356Z,17.60
2023-04-09T14:10:19.644Z,16.10
2023-04-09T14:12:55.665Z,16.50
2023-04-09T14:15:28.356Z,16.40
2023-04-09T14:18:01.053Z,15.10
2023-04-09T14:20:54.462Z,15.70
2023-04-09T14:23:28.621Z,14.70
2023-04-09T14:26:04.794Z,15.90
2023-04-09T14:28:41.943Z,15.40
2023-04-09T14:31:26.144Z,14.60
2023-04-09T14:33:59.645Z,17.20
2023-04-09T14:36:32.360Z,15.80
2023-04-09T14:39:09.555Z,15.70
2023-04-09T14:41:45.505Z,16.20
2023-04-09T14:44:21.203Z,15.50
2023-04-09T14:46:55.102Z,16.10
2023-04-09T14:49:28.121Z,14.80
2023-04-09T14:52:03.000Z,15.00
2023-04-09T14:54:35.853Z,14.10
2023-04-09T14:57:08.797Z,14.80
2023-04-09T14:59:41.538Z,15.90
2023-04-09T15:02:17.752Z,15.60
2023-04-09T15:04:52.927Z,15.10
2023-04-09T15:07:28.510Z,11.20
2023-04-09T15:10:01.215Z,14.50
2023-04-09T15:12:35.581Z,15.40
2023-04-09T15:15:11.462Z,14.70
2023-04-09T15:17:46.682Z,16.70
2023-04-09T15:20:22.801Z,15.30
2023-04-09T15:22:56.016Z,17.10
2023-04-09T15:25:32.813Z,17.70
2023-04-09T15:28:06.536Z,19.50
2023-04-09T15:30:39.335Z,15.60
2023-04-09T15:33:15.605Z,16.60
2023-04-09T15:35:52.410Z,16.30
2023-04-09T15:38:25.253Z,16.60
2023-04-09T15:40:58.820Z,14.90
2023-04-09T15:43:31.771Z,14.60
2023-04-09T15:46:13.545Z,15.80
2023-04-09T15:48:46.665Z,16.90
2023-04-09T15:51:19.367Z,20.40
2023-04-09T15:53:55.168Z,19.30
2023-04-09T15:56:27.495Z,16.60
2023-04-09T15:59:05.356Z,16.80
2023-04-09T16:01:38.109Z,18.00
2023-04-09T16:04:10.779Z,23.70
2023-04-09T16:06:43.590Z,20.70
2023-04-09T16:09:15.907Z,25.10
2023-04-09T16:11:48.486Z,19.80
2023-04-09T16:14:21.308Z,19.70
2023-04-09T16:16:54.011Z,27.60
2023-04-09T16:19:26.803Z,36.50
2023-04-09T16:21:59.662Z,31.30
2023-04-09T16:24:33.531Z,27.70
2023-04-09T16:27:09.410Z,28.90
2023-04-09T16:29:42.455Z,25.00
2023-04-09T16:32:15.186Z,24.60
2023-04-09T16:34:56.636Z,24.30
2023-04-09T16:37:29.745Z,22.00
2023-04-09T16:40:04.942Z,24.50
2023-04-09T16:42:40.937Z,22.60
2023-04-09T16:45:20.550Z,25.40
2023-04-09T16:47:56.413Z,23.20
2023-04-09T16:50:31.940Z,20.50
2023-04-09T16:53:05.061Z,20.90
2023-04-09T16:55:48.172Z,24.50
2023-04-09T16:58:23.965Z,25.00
2023-04-09T17:00:57.568Z,23.90
2023-04-09T17:03:30.314Z,23.50
2023-04-09T17:06:07.082Z,23.20
2023-04-09T17:08:40.038Z,29.70
2023-04-09T17:11:17.501Z,29.00
2023-04-09T17:13:50.538Z,42.50
2023-04-09T17:16:23.804Z,49.60
2023-04-09T17:18:59.780Z,50.40
2023-04-09T17:21:32.678Z,45.40
2023-04-09T17:24:09.000Z,47.90
2023-04-09T17:26:41.863Z,43.70
2023-04-09T17:29:14.388Z,44.10
2023-04-09T17:31:48.886Z,51.20
2023-04-09T17:34:24.265Z,48.10
2023-04-09T17:37:00.261Z,48.60
2023-04-09T17:39:37.418Z,50.30
2023-04-09T17:42:11.853Z,45.30
2023-04-09T17:44:46.222Z,40.90
2023-04-09T17:47:19.352Z,38.90
2023-04-09T17:49:53.324Z,40.50
2023-04-09T17:52:29.226Z,45.80
2023-04-09T17:55:23.532Z,48.10
2023-04-09T17:58:11.590Z,48.70
2023-04-09T18:01:07.726Z,50.40
2023-04-09T18:03:52.660Z,49.40
2023-04-09T18:06:29.368Z,48.10
2023-04-09T18:09:22.483Z,48.00
2023-04-09T18:12:00.100Z,45.70
2023-04-09T18:14:53.039Z,51.70
2023-04-09T18:17:45.931Z,51.70
2023-04-09T18:20:26.412Z,49.80
2023-04-09T18:22:59.079Z,54.10
2023-04-09T18:25:31.529Z,62.40
2023-04-09T18:28:07.724Z,63.60
2023-04-09T18:30:43.591Z,69.00
2023-04-09T18:33:18.994Z,72.00
2023-04-09T18:36:12.481Z,72.20
2023-04-09T18:39:06.649Z,62.70
2023-04-09T18:41:59.722Z,69.30
2023-04-09T18:44:52.816Z,73.50
2023-04-09T18:47:34.828Z,91.90
2023-04-09T18:50:09.639Z,117.90
2023-04-09T18:52:52.083Z,124.50
2023-04-09T18:55:24.300Z,147.80
2023-04-09T18:57:57.522Z,166.80
2023-04-09T19:00:37.456Z,135.70
2023-04-09T19:03:31.121Z,93.30
2023-04-09T19:06:27.963Z,83.10
2023-04-09T19:09:20.941Z,58.20
2023-04-09T19:12:04.967Z,57.00
2023-04-09T19:14:38.092Z,47.20
2023-04-09T19:17:13.466Z,41.20
2023-04-09T19:19:49.444Z,37.60
2023-04-09T19:22:25.323Z,40.30
2023-04-09T19:24:59.603Z,41.90
2023-04-09T19:27:54.458Z,43.20
2023-04-09T19:30:50.993Z,41.30
2023-04-09T19:33:34.754Z,43.30
2023-04-09T19:36:18.268Z,45.40
2023-04-09T19:38:56.368Z,47.70
2023-04-09T19:41:49.019Z,44.90
2023-04-09T19:44:42.351Z,49.30
2023-04-09T19:47:17.929Z,45.00
2023-04-09T19:49:59.737Z,48.70
2023-04-09T19:52:33.212Z,47.10
2023-04-09T19:55:19.134Z,48.30
2023-04-09T19:58:06.637Z,49.50
2023-04-09T20:00:42.020Z,51.90
2023-04-09T20:03:23.090Z,61.60
2023-04-09T20:05:55.801Z,63.20
2023-04-09T20:08:28.829Z,69.80
2023-04-09T20:11:22.652Z,84.50
2023-04-09T20:14:06.302Z,85.10
2023-04-09T20:16:39.257Z,75.80
2023-04-09T20:19:11.906Z,78.90
2023-04-09T20:21:53.022Z,84.20
2023-04-09T20:24:28.779Z,89.20
2023-04-09T20:27:23.627Z,93.20
2023-04-09T20:29:59.134Z,92.50
2023-04-09T20:32:31.645Z,88.10
2023-04-09T20:35:09.662Z,78.40
2023-04-09T20:37:44.800Z,63.50
2023-04-09T20:40:17.654Z,64.90
2023-04-09T20:43:00.585Z,59.60
2023-04-09T20:45:43.170Z,60.30
2023-04-09T20:48:19.025Z,59.50
2023-04-09T20:51:09.446Z,54.90
2023-04-09T20:53:42.289Z,62.50
2023-04-09T20:56:26.588Z,60.20
2023-04-09T20:58:59.809Z,61.50
2023-04-09T21:01:33.448Z,66.40
2023-04-09T21:04:06.751Z,66.30
2023-04-09T21:06:50.834Z,65.40
2023-04-09T21:09:24.735Z,64.40
2023-04-09T21:12:07.898Z,64.60
2023-04-09T21:14:42.735Z,63.80
2023-04-09T21:17:20.330Z,68.90
2023-04-09T21:20:02.999Z,64.40
2023-04-09T21:22:38.553Z,63.80
2023-04-09T21:25:13.780Z,61.10
2023-04-09T21:27:59.489Z,63.80
2023-04-09T21:30:32.871Z,63.60
2023-04-09T21:33:09.994Z,69.70
2023-04-09T21:35:54.660Z,75.80
2023-04-09T21:38:47.407Z,64.50
2023-04-09T21:41:19.880Z,63.30
2023-04-09T21:43:52.553Z,59.50
2023-04-09T21:46:25.234Z,57.30
2023-04-09T21:49:05.976Z,59.50
2023-04-09T21:51:39.916Z,57.60
2023-04-09T21:54:12.639Z,54.00
2023-04-09T21:56:55.419Z,55.80
2023-04-09T21:59:38.122Z,56.20
2023-04-09T22:02:14.057Z,60.80
2023-04-09T22:04:46.748Z,60.70
2023-04-09T22:07:30.679Z,57.80
2023-04-09T22:10:03.346Z,57.90
2023-04-09T22:12:38.761Z,55.70
2023-04-09T22:15:13.308Z,60.00
2023-04-09T22:17:53.137Z,56.40
2023-04-09T22:20:29.366Z,58.10
2023-04-09T22:23:08.938Z,62.30
2023-04-09T22:25:41.662Z,59.00
2023-04-09T22:28:18.155Z,55.20
2023-04-09T22:30:53.425Z,53.00
2023-04-09T22:36:12.292Z,52.00
2023-04-09T22:38:55.877Z,55.70
2023-04-09T22:41:31.012Z,55.30
2023-04-09T22:44:03.839Z,53.00
2023-04-09T22:46:36.715Z,53.60
2023-04-09T22:49:09.979Z,58.20
2023-04-09T22:51:43.932Z,52.70
2023-04-09T22:54:26.429Z,53.40
2023-04-09T22:56:59.128Z,55.20
2023-04-09T23:02:14.724Z,59.20
2023-04-09T23:04:50.342Z,56.30
2023-04-09T23:07:33.447Z,59.10
2023-04-09T23:10:14.211Z,62.00
2023-04-09T23:12:46.659Z,55.40
2023-04-09T23:15:19.798Z,55.50
2023-04-09T23:17:55.650Z,56.30
2023-04-09T23:20:30.583Z,50.90
2023-04-09T23:23:06.870Z,49.30
2023-04-09T23:25:39.704Z,51.00
2023-04-09T23:28:23.488Z,47.10
2023-04-09T23:31:05.848Z,47.20
2023-04-09T23:33:38.449Z,43.50
2023-04-09T23:36:11.693Z,42.10
2023-04-09T23:38:59.012Z,44.70
2023-04-09T23:41:41.694Z,43.40
2023-04-09T23:44:34.894Z,42.40
2023-04-09T23:47:12.016Z,43.90
2023-04-09T23:49:54.789Z,43.50
2023-04-09T23:52:52.557Z,44.90
2023-04-09T23:55:28.650Z,43.30
2023-04-09T23:58:01.754Z,41.80
